createdAt,value
2017-10-16T00:02:01.966Z,101895.25
2017-10-16T00:04:30.347Z,101887.40
2017-10-16T00:06:58.681Z,101892.32
2017-10-16T00:09:27.034Z,101890.85
2017-10-16T00:11:55.645Z,101893.09
2017-10-16T00:14:23.983Z,101891.14
2017-10-16T00:16:52.340Z,101900.47
2017-10-16T00:19:20.706Z,101902.38
2017-10-16T00:21:49.044Z,101912.96
2017-10-16T00:24:17.390Z,101901.51
2017-10-16T00:26:46.410Z,101905.84
2017-10-16T00:29:14.807Z,101899.18
2017-10-16T00:31:43.173Z,101899.77
2017-10-16T00:34:12.613Z,101897.52
2017-10-16T00:36:40.974Z,101899.73
2017-10-16T00:39:10.104Z,101904.59
2017-10-16T00:41:38.491Z,101906.62
2017-10-16T00:44:06.849Z,101902.36
2017-10-16T00:46:35.218Z,101901.50
2017-10-16T00:49:03.686Z,101900.64
2017-10-16T00:51:32.786Z,101901.80
2017-10-16T00:54:01.119Z,101901.20
2017-10-16T00:56:29.545Z,101897.66
2017-10-16T00:58:57.930Z,101899.63
2017-10-16T01:01:27.029Z,101904.23
2017-10-16T01:03:56.185Z,101903.20
2017-10-16T01:06:24.539Z,101901.16
2017-10-16T01:08:52.882Z,101903.40
2017-10-16T01:11:22.051Z,101896.65
2017-10-16T01:13:50.393Z,101898.99
2017-10-16T01:16:18.723Z,101895.74
2017-10-16T01:18:48.338Z,101900.47
2017-10-16T01:21:16.803Z,101900.31
2017-10-16T01:23:45.161Z,101897.84
2017-10-16T01:26:13.537Z,101897.30
2017-10-16T01:28:41.890Z,101898.83
2017-10-16T01:31:10.243Z,101889.32
2017-10-16T01:33:39.679Z,101886.77
2017-10-16T01:36:08.013Z,101884.97
2017-10-16T01:38:36.341Z,101890.87
2017-10-16T01:41:04.776Z,101884.04
2017-10-16T01:43:33.878Z,101884.92
2017-10-16T01:46:03.014Z,101883.84
2017-10-16T01:48:31.376Z,101877.56
2017-10-16T01:50:59.730Z,101883.30
2017-10-16T01:53:28.854Z,101884.89
2017-10-16T01:55:57.222Z,101881.92
2017-10-16T01:58:26.334Z,101882.30
2017-10-16T02:00:54.683Z,101874.30
2017-10-16T02:03:23.984Z,101880.47
2017-10-16T02:05:53.110Z,101873.25
2017-10-16T02:08:21.456Z,101879.62
2017-10-16T02:10:49.836Z,101870.89
2017-10-16T02:13:19.251Z,101878.55
2017-10-16T02:15:47.600Z,101875.30
2017-10-16T02:18:16.737Z,101875.98
2017-10-16T02:20:45.073Z,101875.74
2017-10-16T02:23:13.395Z,101873.00
2017-10-16T02:25:42.349Z,101868.74
2017-10-16T02:28:10.781Z,101874.99
2017-10-16T02:30:39.117Z,101867.67
2017-10-16T02:33:07.482Z,101866.81
2017-10-16T02:35:35.858Z,101864.98
2017-10-16T02:38:04.211Z,101860.08
2017-10-16T02:40:32.645Z,101862.64
2017-10-16T02:43:01.748Z,101859.08
2017-10-16T02:45:30.881Z,101859.98
2017-10-16T02:47:59.383Z,101855.56
2017-10-16T02:50:27.713Z,101852.30
2017-10-16T02:52:56.087Z,101850.02
2017-10-16T02:55:25.255Z,101846.08
2017-10-16T02:57:53.602Z,101858.89
2017-10-16T03:00:21.945Z,101853.72
2017-10-16T03:02:51.119Z,101854.49
2017-10-16T03:05:19.470Z,101857.03
2017-10-16T03:07:47.830Z,101858.42
2017-10-16T03:10:16.277Z,101859.63
2017-10-16T03:12:46.349Z,101861.50
2017-10-16T03:15:15.451Z,101859.97
2017-10-16T03:17:43.805Z,101861.00
2017-10-16T03:20:12.231Z,101862.30
2017-10-16T03:22:41.353Z,101867.76
2017-10-16T03:25:10.485Z,101872.79
2017-10-16T03:27:38.830Z,101873.84
2017-10-16T03:30:07.185Z,101874.95
2017-10-16T03:32:36.402Z,101868.38
2017-10-16T03:35:05.131Z,101872.91
2017-10-16T03:37:33.532Z,101879.31
2017-10-16T03:40:01.899Z,101875.89
2017-10-16T03:42:30.724Z,101875.06
2017-10-16T03:44:59.061Z,101881.90
2017-10-16T03:47:27.430Z,101880.09
2017-10-16T03:49:56.637Z,101878.64
2017-10-16T03:52:24.974Z,101877.62
2017-10-16T03:54:54.986Z,101876.77
2017-10-16T03:57:24.078Z,101871.13
2017-10-16T03:59:52.412Z,101872.07
2017-10-16T04:02:20.782Z,101871.73
2017-10-16T04:04:49.118Z,101876.08
2017-10-16T04:07:18.226Z,101875.31
2017-10-16T04:09:46.595Z,101864.28
2017-10-16T04:12:15.719Z,101860.19
2017-10-16T04:14:44.151Z,101867.46
2017-10-16T04:17:12.795Z,101868.41
2017-10-16T04:19:41.188Z,101871.56
2017-10-16T04:22:09.597Z,101874.20
2017-10-16T04:24:38.024Z,101870.63
2017-10-16T04:27:06.410Z,101885.81
2017-10-16T04:29:35.647Z,101876.94
2017-10-16T04:32:04.015Z,101879.25
2017-10-16T04:34:32.354Z,101874.89
2017-10-16T04:37:00.837Z,101878.73
2017-10-16T04:39:29.480Z,101877.78
2017-10-16T04:41:57.858Z,101880.09
2017-10-16T04:44:26.187Z,101884.63
2017-10-16T04:46:54.559Z,101886.76
2017-10-16T04:49:22.970Z,101884.11
2017-10-16T04:51:51.349Z,101889.66
2017-10-16T04:54:19.875Z,101887.61
2017-10-16T04:56:49.144Z,101888.89
2017-10-16T04:59:17.511Z,101880.70
2017-10-16T05:01:46.262Z,101878.56
2017-10-16T05:04:14.604Z,101882.48
2017-10-16T05:06:42.970Z,101881.80
2017-10-16T05:09:11.386Z,101882.14
2017-10-16T05:11:39.811Z,101886.06
2017-10-16T05:14:08.230Z,101882.91
2017-10-16T05:16:36.674Z,101879.84
2017-10-16T05:19:05.090Z,101874.20
2017-10-16T05:21:34.283Z,101879.84
2017-10-16T05:24:02.872Z,101883.42
2017-10-16T05:26:31.351Z,101889.23
2017-10-16T05:28:59.732Z,101891.63
2017-10-16T05:31:28.106Z,101890.33
2017-10-16T05:33:56.462Z,101887.27
2017-10-16T05:36:24.862Z,101886.48
2017-10-16T05:38:53.522Z,101893.22
2017-10-16T05:41:21.879Z,101887.84
2017-10-16T05:43:50.258Z,101886.62
2017-10-16T16:01:01.475Z,101823.35
2017-10-16T16:03:30.602Z,101817.48
2017-10-16T16:05:58.983Z,101826.92
2017-10-16T16:08:27.373Z,101822.34
2017-10-16T16:10:55.738Z,101828.80
2017-10-16T16:13:24.088Z,101823.22
2017-10-16T16:15:53.219Z,101825.19
2017-10-16T16:18:21.577Z,101820.84
2017-10-16T16:20:49.927Z,101814.75
2017-10-16T16:23:18.441Z,101816.56
2017-10-16T16:25:47.553Z,101811.89
2017-10-16T16:28:15.890Z,101810.88
2017-10-16T16:30:44.279Z,101812.46
2017-10-16T16:33:13.370Z,101815.76
2017-10-16T16:35:42.508Z,101818.64
2017-10-16T16:38:10.872Z,101818.45
2017-10-16T16:40:39.224Z,101815.79
2017-10-16T16:43:08.476Z,101818.94
2017-10-16T16:45:36.910Z,101815.95
2017-10-16T16:48:05.253Z,101817.52
2017-10-16T16:50:33.623Z,101817.50
2017-10-16T16:53:02.778Z,101817.81
2017-10-16T16:55:31.204Z,101826.60
2017-10-16T16:57:59.569Z,101826.12
2017-10-16T17:00:27.927Z,101823.13
2017-10-16T17:02:56.293Z,101823.48
2017-10-16T17:05:24.649Z,101828.03
2017-10-16T17:07:53.196Z,101832.20
2017-10-16T17:10:21.543Z,101831.98
2017-10-16T17:12:49.911Z,101830.92
2017-10-16T17:15:19.085Z,101821.26
2017-10-16T17:17:47.474Z,101822.22
2017-10-16T17:20:15.817Z,101820.41
2017-10-16T17:22:44.181Z,101816.69
2017-10-16T17:25:12.522Z,101828.80
2017-10-16T17:27:41.655Z,101821.89
2017-10-16T17:30:10.174Z,101823.48
2017-10-16T17:32:38.559Z,101829.03
2017-10-16T17:35:06.913Z,101830.94
2017-10-16T17:37:35.271Z,101824.06
2017-10-16T17:40:03.966Z,101826.92
2017-10-16T17:42:32.313Z,101826.92
2017-10-16T17:45:01.474Z,101838.27
2017-10-16T17:47:29.844Z,101830.31
2017-10-16T17:49:58.197Z,101830.52
2017-10-16T17:52:27.532Z,101834.66
2017-10-16T17:54:55.894Z,101838.05
2017-10-16T17:57:24.266Z,101835.61
2017-10-16T17:59:52.658Z,101842.82
2017-10-16T18:02:21.002Z,101840.48
2017-10-16T18:04:49.358Z,101840.87
2017-10-16T18:07:18.523Z,101842.84
2017-10-16T18:09:46.858Z,101845.42
2017-10-16T18:12:15.230Z,101843.92
2017-10-16T18:14:44.742Z,101835.94
2017-10-16T18:17:13.106Z,101833.36
2017-10-16T18:19:42.217Z,101838.84
2017-10-16T18:22:10.615Z,101836.31
2017-10-16T18:24:38.975Z,101836.83
2017-10-16T18:27:07.321Z,101833.84
2017-10-16T18:29:35.731Z,101840.98
2017-10-16T18:32:04.110Z,101844.66
2017-10-16T18:34:32.451Z,101837.95
2017-10-16T18:37:01.276Z,101840.91
2017-10-16T18:39:30.387Z,101833.13
2017-10-16T18:41:58.764Z,101827.95
2017-10-16T18:44:27.119Z,101824.87
2017-10-16T18:46:55.474Z,101820.55
2017-10-16T18:49:23.804Z,101820.91
2017-10-16T18:51:52.181Z,101819.97
2017-10-16T18:54:20.621Z,101824.55
2017-10-16T18:56:48.997Z,101823.03
2017-10-16T18:59:18.265Z,101819.12
2017-10-16T19:01:46.635Z,101813.11
2017-10-16T19:04:15.037Z,101820.55
2017-10-16T19:06:43.397Z,101820.63
2017-10-16T19:09:11.743Z,101817.94
2017-10-16T19:11:40.877Z,101817.00
2017-10-16T19:14:09.344Z,101814.27
2017-10-16T19:16:37.700Z,101804.66
2017-10-16T19:19:06.816Z,101802.09
2017-10-16T19:21:35.260Z,101804.03
2017-10-16T19:24:03.653Z,101799.63
2017-10-16T19:26:32.785Z,101811.00
2017-10-16T19:29:01.934Z,101811.37
2017-10-16T19:31:31.060Z,101810.52
2017-10-16T19:33:59.434Z,101810.23
2017-10-16T19:36:27.827Z,101810.14
2017-10-16T19:38:56.192Z,101816.52
2017-10-16T19:41:25.418Z,101820.17
2017-10-16T19:43:53.958Z,101820.22
2017-10-16T19:46:23.131Z,101815.77
2017-10-16T19:48:51.486Z,101811.17
2017-10-16T19:51:19.969Z,101812.77
2017-10-16T19:53:48.317Z,101813.67
2017-10-16T19:56:16.648Z,101813.42
2017-10-16T19:58:45.815Z,101816.27
2017-10-16T20:01:14.228Z,101810.22
2017-10-16T20:03:42.597Z,101812.20
2017-10-16T20:06:11.036Z,101820.53
2017-10-16T20:08:40.179Z,101821.14
2017-10-16T20:11:08.566Z,101813.11
2017-10-16T20:13:36.937Z,101815.55
2017-10-16T20:16:05.312Z,101817.53
2017-10-16T20:18:33.650Z,101811.86
2017-10-16T20:21:02.297Z,101813.60
2017-10-16T20:23:30.741Z,101810.59
2017-10-16T20:25:59.082Z,101813.28
2017-10-16T20:28:28.425Z,101812.29
2017-10-16T20:30:56.771Z,101812.08
2017-10-16T20:33:26.173Z,101812.49
2017-10-16T20:35:54.549Z,101816.42
2017-10-16T20:38:22.914Z,101823.81
2017-10-16T20:40:51.294Z,101817.36
2017-10-16T20:43:19.873Z,101826.45
2017-10-16T20:45:48.996Z,101826.13
2017-10-16T20:48:17.371Z,101815.54
2017-10-16T20:50:45.906Z,101822.88
2017-10-16T20:53:14.262Z,101823.31
2017-10-16T20:55:42.593Z,101814.29
2017-10-16T20:58:10.987Z,101816.48
2017-10-16T21:00:39.353Z,101815.96
2017-10-16T21:03:08.453Z,101811.41
2017-10-16T21:05:37.584Z,101812.13
2017-10-16T21:08:05.960Z,101812.96
2017-10-16T21:10:35.083Z,101807.04
2017-10-16T21:13:03.813Z,101811.09
2017-10-16T21:15:32.194Z,101813.63
2017-10-16T21:18:00.564Z,101809.83
2017-10-16T21:20:28.939Z,101821.80
2017-10-16T21:22:58.138Z,101819.61
2017-10-16T21:25:27.250Z,101814.16
2017-10-16T21:27:55.656Z,101818.62
2017-10-16T21:30:24.009Z,101827.00
2017-10-16T21:32:52.387Z,101820.42
2017-10-16T21:35:20.953Z,101819.47
2017-10-16T21:37:49.323Z,101818.72
2017-10-16T21:40:17.677Z,101810.73
2017-10-16T21:42:46.706Z,101805.57
2017-10-16T21:45:16.770Z,101800.09
2017-10-16T21:47:45.105Z,101803.37
2017-10-16T21:50:14.230Z,101797.55
2017-10-16T21:52:42.581Z,101794.17
2017-10-16T21:55:11.719Z,101792.00
2017-10-16T21:57:40.604Z,101794.64
2017-10-16T22:00:08.957Z,101800.53
2017-10-16T22:02:38.083Z,101799.12
2017-10-16T22:05:07.244Z,101801.08
2017-10-16T22:07:35.598Z,101799.41
2017-10-16T22:10:04.275Z,101799.45
2017-10-16T22:12:32.662Z,101801.47
2017-10-16T22:15:01.043Z,101805.12
2017-10-16T22:17:29.403Z,101790.27
2017-10-16T22:19:58.095Z,101797.25
2017-10-16T22:22:26.436Z,101796.00
2017-10-16T22:24:54.802Z,101800.52
2017-10-16T22:27:24.560Z,101794.68
2017-10-16T22:29:52.897Z,101789.58
2017-10-16T22:32:21.271Z,101797.08
2017-10-16T22:34:50.422Z,101792.66
2017-10-16T22:37:18.786Z,101798.61
2017-10-16T22:39:47.142Z,101801.26
2017-10-16T22:42:15.583Z,101808.85
2017-10-16T22:44:43.946Z,101808.59
2017-10-16T22:47:12.318Z,101806.94
2017-10-16T22:49:40.693Z,101810.97
2017-10-16T22:52:09.024Z,101805.36
2017-10-16T22:54:47.314Z,101810.69
2017-10-16T22:57:15.692Z,101801.72
2017-10-16T22:59:44.829Z,101807.15
2017-10-16T23:02:13.334Z,101806.13
2017-10-16T23:04:42.444Z,101791.47
2017-10-16T23:07:10.835Z,101790.45
2017-10-16T23:09:39.236Z,101794.66
2017-10-16T23:12:08.360Z,101795.66
2017-10-16T23:14:36.716Z,101789.70
2017-10-16T23:17:05.852Z,101793.88
2017-10-16T23:19:34.210Z,101794.92
2017-10-16T23:22:02.555Z,101802.72
2017-10-16T23:24:31.020Z,101796.32
2017-10-16T23:26:59.686Z,101803.48
2017-10-16T23:29:28.040Z,101797.97
2017-10-16T23:31:56.400Z,101805.50
2017-10-16T23:34:25.562Z,101800.31
2017-10-16T23:36:53.898Z,101791.69
2017-10-16T23:39:22.261Z,101795.23
2017-10-16T23:41:51.370Z,101793.18
2017-10-16T23:44:19.704Z,101799.86
2017-10-16T23:46:48.228Z,101795.56
2017-10-16T23:49:16.550Z,101793.93
2017-10-16T23:51:44.890Z,101794.22
2017-10-16T23:54:13.257Z,101796.63
2017-10-16T23:56:42.358Z,101796.52
2017-10-16T23:59:10.702Z,101797.84
